createdAt,value
2022-10-02T00:00:19.567Z,100520.06
2022-10-02T00:03:15.662Z,100525.72
2022-10-02T00:06:09.105Z,100519.22
2022-10-02T00:09:04.016Z,100517.53
2022-10-02T00:11:57.945Z,100519.84
2022-10-02T00:14:48.220Z,100516.47
2022-10-02T00:17:40.584Z,100532.09
2022-10-02T00:20:35.193Z,100523.91
2022-10-02T00:23:29.289Z,100527.09
2022-10-02T00:26:24.520Z,100530.47
2022-10-02T00:29:29.628Z,100513.97
2022-10-02T00:32:26.050Z,100529.50
2022-10-02T00:35:37.040Z,100524.47
2022-10-02T00:38:38.746Z,100534.75
2022-10-02T00:42:14.845Z,100538.28
2022-10-02T00:45:32.009Z,100544.84
2022-10-02T00:48:34.628Z,100541.19
2022-10-02T00:51:39.585Z,100548.31
2022-10-02T00:54:55.055Z,100535.69
2022-10-02T00:58:01.400Z,100551.78
2022-10-02T01:01:01.066Z,100548.56
2022-10-02T01:03:53.395Z,100548.78
2022-10-02T01:06:41.611Z,100548.25
2022-10-02T01:09:29.830Z,100537.28
2022-10-02T01:12:17.778Z,100543.53
2022-10-02T01:15:12.685Z,100536.72
2022-10-02T01:18:03.319Z,100541.47
2022-10-02T01:20:53.768Z,100542.97
2022-10-02T01:23:49.220Z,100550.53
2022-10-02T01:26:38.280Z,100548.47
2022-10-02T01:29:26.078Z,100551.38
2022-10-02T01:32:13.623Z,100548.41
2022-10-02T01:35:02.727Z,100541.97
2022-10-02T01:37:52.430Z,100544.28
2022-10-02T01:40:41.989Z,100549.19
2022-10-02T01:43:35.852Z,100553.97
2022-10-02T01:46:34.459Z,100564.84
2022-10-02T01:49:40.999Z,100556.91
2022-10-02T01:52:48.253Z,100566.56
2022-10-02T01:55:42.321Z,100565.56
2022-10-02T01:58:37.503Z,100570.41
2022-10-02T02:01:40.080Z,100565.78
2022-10-02T02:04:32.401Z,100562.22
2022-10-02T02:07:28.455Z,100551.91
2022-10-02T02:10:24.930Z,100554.81
2022-10-02T02:13:17.493Z,100569.19
2022-10-02T02:16:13.641Z,100567.94
2022-10-02T02:19:05.847Z,100582.03
2022-10-02T02:22:01.483Z,100583.06
2022-10-02T02:24:53.719Z,100578.06
2022-10-02T02:27:45.804Z,100585.91
2022-10-02T02:30:35.237Z,100581.47
2022-10-02T02:33:28.990Z,100592.91
2022-10-02T02:36:21.735Z,100591.72
2022-10-02T02:39:13.291Z,100568.22
2022-10-02T02:42:04.653Z,100565.09
2022-10-02T02:44:56.738Z,100570.34
2022-10-02T02:47:50.088Z,100570.16
2022-10-02T02:50:44.006Z,100560.31
2022-10-02T02:53:38.720Z,100572.88
2022-10-02T02:56:28.997Z,100560.31
2022-10-02T02:59:16.822Z,100549.56
2022-10-02T03:02:04.475Z,100558.59
2022-10-02T03:04:51.918Z,100561.97
2022-10-02T03:07:41.521Z,100558.19
2022-10-02T03:10:40.358Z,100569.13
2022-10-02T03:13:42.888Z,100564.47
2022-10-02T03:16:42.792Z,100558.38
2022-10-02T03:19:41.797Z,100565.78
2022-10-02T03:22:37.070Z,100561.13
2022-10-02T03:25:32.111Z,100564.47
2022-10-02T03:28:50.522Z,100563.19
2022-10-02T03:31:35.333Z,100560.28
2022-10-02T03:34:23.681Z,100569.72
2022-10-02T03:37:10.869Z,100563.00
2022-10-02T03:40:01.343Z,100574.38
2022-10-02T03:42:51.837Z,100571.66
2022-10-02T03:45:51.090Z,100552.78
2022-10-02T03:48:39.100Z,100556.59
2022-10-02T03:51:26.374Z,100553.22
2022-10-02T03:54:18.079Z,100547.38
2022-10-02T03:57:07.742Z,100536.50
2022-10-02T04:00:02.721Z,100542.44
2022-10-02T04:02:59.844Z,100540.31
2022-10-02T04:05:52.960Z,100550.00
2022-10-02T04:08:45.198Z,100540.13
2022-10-02T04:11:37.104Z,100564.34
2022-10-02T04:14:30.073Z,100556.31
2022-10-02T04:17:23.413Z,100557.41
2022-10-02T04:20:18.245Z,100548.31
2022-10-02T04:23:16.840Z,100557.09
2022-10-02T04:26:11.881Z,100563.16
2022-10-02T04:29:03.500Z,100563.16
2022-10-02T04:31:55.199Z,100563.97
2022-10-02T04:34:44.234Z,100561.22
2022-10-02T04:37:46.962Z,100574.19
2022-10-02T04:40:52.622Z,100564.72
2022-10-02T04:43:52.634Z,100573.56
2022-10-02T04:46:57.204Z,100578.56
2022-10-02T04:49:59.761Z,100582.97
2022-10-02T04:53:03.753Z,100584.59
2022-10-02T04:56:07.309Z,100589.38
2022-10-02T04:59:08.717Z,100588.84
2022-10-02T05:02:03.801Z,100592.09
2022-10-02T05:05:19.246Z,100591.72
2022-10-02T05:08:26.013Z,100589.38
2022-10-02T05:11:32.051Z,100590.78
2022-10-02T05:14:38.402Z,100603.59
2022-10-02T05:17:43.176Z,100610.72
2022-10-02T05:20:46.450Z,100608.66
2022-10-02T05:23:47.177Z,100604.69
2022-10-02T05:26:50.198Z,100602.97
2022-10-02T05:30:03.329Z,100601.75
2022-10-02T05:33:13.980Z,100594.22
2022-10-02T05:36:22.586Z,100604.38
2022-10-02T05:39:15.307Z,100601.03
2022-10-02T05:42:13.673Z,100599.09
2022-10-02T05:45:05.247Z,100608.41
2022-10-02T05:47:56.678Z,100616.59
2022-10-02T05:50:50.503Z,100620.03
2022-10-02T05:53:44.996Z,100618.56
2022-10-02T05:56:37.430Z,100620.91
2022-10-02T05:59:32.759Z,100621.34
2022-10-02T06:04:36.007Z,100619.69
2022-10-02T06:07:25.434Z,100620.97
2022-10-02T06:10:17.980Z,100622.28
2022-10-02T06:13:13.900Z,100627.59
2022-10-02T06:16:10.171Z,100618.09
2022-10-02T06:19:04.148Z,100625.09
2022-10-02T06:21:59.018Z,100627.66
2022-10-02T06:24:51.971Z,100620.97
2022-10-02T06:27:44.591Z,100628.78
2022-10-02T06:30:36.484Z,100622.56
2022-10-02T06:33:25.463Z,100613.56
2022-10-02T06:36:38.011Z,100612.34
2022-10-02T06:39:43.320Z,100627.28
2022-10-02T06:42:43.300Z,100629.00
2022-10-02T06:45:40.123Z,100631.53
2022-10-02T06:48:37.527Z,100657.66
2022-10-02T06:51:36.248Z,100660.19
2022-10-02T06:54:37.469Z,100665.22
2022-10-02T06:57:39.724Z,100654.88
2022-10-02T07:00:27.141Z,100662.25
2022-10-02T07:03:42.258Z,100651.41
2022-10-02T07:06:42.837Z,100645.91
2022-10-02T07:10:05.452Z,100650.75
2022-10-02T07:13:09.472Z,100667.84
2022-10-02T07:16:25.309Z,100676.66
2022-10-02T07:19:35.328Z,100675.81
2022-10-02T07:22:44.672Z,100680.84
2022-10-02T07:25:49.857Z,100689.34
2022-10-02T07:28:43.561Z,100685.72
2022-10-02T07:31:46.834Z,100688.41
2022-10-02T07:34:42.579Z,100690.34
2022-10-02T07:37:43.030Z,100687.63
2022-10-02T07:40:44.640Z,100684.69
2022-10-02T07:43:50.033Z,100684.13
2022-10-02T07:46:45.491Z,100686.63
2022-10-02T07:49:48.029Z,100687.44
2022-10-02T07:52:43.586Z,100691.88
2022-10-02T07:55:31.440Z,100698.41
2022-10-02T07:58:24.523Z,100695.03
2022-10-02T08:01:17.697Z,100692.41
2022-10-02T08:04:11.929Z,100699.06
2022-10-02T08:07:03.710Z,100689.63
2022-10-02T08:09:54.725Z,100706.00
2022-10-02T08:12:48.650Z,100701.44
2022-10-02T08:15:39.185Z,100711.16
2022-10-02T08:18:35.604Z,100708.03
2022-10-02T08:21:25.622Z,100703.19
2022-10-02T08:24:16.620Z,100712.16
2022-10-02T08:27:11.921Z,100710.47
2022-10-02T08:30:04.187Z,100718.03
2022-10-02T08:32:51.399Z,100716.03
2022-10-02T08:35:46.549Z,100714.19
2022-10-02T08:38:42.844Z,100723.78
2022-10-02T08:42:04.269Z,100723.66
2022-10-02T08:45:42.264Z,100724.25
2022-10-02T08:49:19.708Z,100729.94
2022-10-02T08:52:30.170Z,100723.31
2022-10-02T08:55:33.106Z,100738.69
2022-10-02T08:58:54.705Z,100738.31
2022-10-02T09:02:47.710Z,100736.25
2022-10-02T09:06:03.889Z,100733.66
2022-10-02T09:09:27.720Z,100726.84
2022-10-02T09:12:38.040Z,100731.06
2022-10-02T09:15:44.722Z,100731.81
2022-10-02T09:18:50.481Z,100729.66
2022-10-02T09:21:56.013Z,100737.56
2022-10-02T09:25:22.088Z,100738.69
2022-10-02T09:28:54.346Z,100739.78
2022-10-02T09:32:13.944Z,100737.31
2022-10-02T09:35:38.317Z,100736.66
2022-10-02T09:39:05.954Z,100741.59
2022-10-02T09:42:32.610Z,100745.53
2022-10-02T09:45:45.255Z,100737.94
2022-10-02T09:49:00.768Z,100745.13
2022-10-02T09:52:23.355Z,100745.38
2022-10-02T09:55:45.579Z,100741.41
2022-10-02T09:59:17.531Z,100739.53
2022-10-02T10:02:50.761Z,100738.69
2022-10-02T10:06:19.742Z,100741.03
2022-10-02T10:09:43.009Z,100739.88
2022-10-02T10:12:51.338Z,100739.31
2022-10-02T10:16:11.974Z,100748.50
2022-10-02T10:19:27.625Z,100755.03
2022-10-02T10:22:46.460Z,100745.81
2022-10-02T10:25:53.331Z,100740.88
2022-10-02T10:29:09.077Z,100752.56
2022-10-02T10:32:57.027Z,100744.25
2022-10-02T10:36:43.322Z,100762.06
2022-10-02T10:39:56.957Z,100773.53
2022-10-02T10:43:15.770Z,100768.50
2022-10-02T10:46:34.630Z,100776.38
2022-10-02T10:50:24.129Z,100755.78
2022-10-02T10:53:37.559Z,100763.88
2022-10-02T10:56:37.989Z,100765.13
2022-10-02T11:00:11.262Z,100766.03
2022-10-02T11:03:37.121Z,100761.69
2022-10-02T11:06:56.421Z,100764.09
2022-10-02T11:10:31.825Z,100753.72
2022-10-02T11:13:44.042Z,100755.25
2022-10-02T11:17:05.549Z,100760.19
2022-10-02T11:20:11.659Z,100748.16
2022-10-02T11:23:19.575Z,100749.69
2022-10-02T11:26:35.616Z,100747.50
2022-10-02T11:30:00.031Z,100759.28
2022-10-02T11:33:11.723Z,100770.03
2022-10-02T11:36:41.871Z,100771.06
2022-10-02T11:39:52.767Z,100771.78
2022-10-02T11:43:03.380Z,100774.19
2022-10-02T11:46:25.043Z,100770.22
2022-10-02T11:49:45.527Z,100769.00
2022-10-02T11:52:53.550Z,100775.69
2022-10-02T11:55:58.030Z,100780.28
2022-10-02T11:58:55.068Z,100784.78
2022-10-02T12:01:47.417Z,100793.34
2022-10-02T12:04:47.381Z,100778.31
2022-10-02T12:07:45.740Z,100786.25
2022-10-02T12:10:42.187Z,100783.13
2022-10-02T12:13:52.064Z,100790.66
2022-10-02T12:16:56.040Z,100784.88
2022-10-02T12:20:24.909Z,100788.09
2022-10-02T12:23:44.851Z,100788.09
2022-10-02T12:27:00.392Z,100791.78
2022-10-02T12:30:02.364Z,100778.66
2022-10-02T12:33:16.214Z,100790.97
2022-10-02T12:36:45.042Z,100788.66
2022-10-02T12:39:43.677Z,100795.00
2022-10-02T12:43:00.344Z,100795.31
2022-10-02T12:46:14.519Z,100793.63
2022-10-02T12:49:27.916Z,100795.50
2022-10-02T12:52:54.349Z,100797.25
2022-10-02T12:56:08.097Z,100793.34
2022-10-02T12:59:05.160Z,100799.09
2022-10-02T13:03:01.859Z,100791.47
2022-10-02T13:06:29.708Z,100790.81
2022-10-02T13:09:45.631Z,100786.41
2022-10-02T13:12:54.192Z,100776.19
2022-10-02T13:15:53.881Z,100790.59
2022-10-02T13:18:57.081Z,100796.81
2022-10-02T13:21:56.078Z,100792.91
2022-10-02T13:24:56.168Z,100805.94
2022-10-02T13:27:53.053Z,100803.56
2022-10-02T13:30:47.682Z,100817.28
2022-10-02T13:34:00.769Z,100842.31
2022-10-02T13:37:07.126Z,100861.63
2022-10-02T13:40:13.497Z,100854.88
2022-10-02T13:43:37.702Z,100855.94
2022-10-02T13:46:39.986Z,100844.97
2022-10-02T13:49:41.500Z,100853.75
2022-10-02T13:52:37.736Z,100845.00
2022-10-02T13:55:29.243Z,100842.94
2022-10-02T13:58:37.084Z,100849.94
2022-10-02T14:01:36.883Z,100855.25
2022-10-02T14:04:38.210Z,100852.69
2022-10-02T14:07:58.991Z,100864.19
2022-10-02T14:11:01.616Z,100861.19
2022-10-02T14:14:09.801Z,100859.06
2022-10-02T14:17:10.356Z,100865.38
2022-10-02T14:20:18.696Z,100860.78
2022-10-02T14:23:27.118Z,100872.66
2022-10-02T14:26:21.211Z,100864.94
2022-10-02T14:29:24.234Z,100873.00
2022-10-02T14:32:50.227Z,100875.97
2022-10-02T14:35:50.306Z,100873.63
2022-10-02T14:39:01.577Z,100879.28
2022-10-02T14:42:15.098Z,100881.44
2022-10-02T14:45:31.936Z,100884.63
2022-10-02T14:48:30.944Z,100884.75
2022-10-02T14:51:36.857Z,100889.41
2022-10-02T14:54:36.020Z,100891.53
2022-10-02T14:57:43.567Z,100889.03
2022-10-02T15:00:41.141Z,100886.06
2022-10-02T15:03:55.745Z,100888.25
2022-10-02T15:07:00.055Z,100898.81
2022-10-02T15:10:03.623Z,100903.47
2022-10-02T15:13:02.315Z,100902.66
2022-10-02T15:16:14.927Z,100915.19
2022-10-02T15:19:09.926Z,100912.66
2022-10-02T15:22:02.349Z,100905.50
2022-10-02T15:24:55.789Z,100912.91
2022-10-02T15:27:46.905Z,100912.91
2022-10-02T15:30:39.576Z,100915.84
2022-10-02T15:33:36.968Z,100922.63
2022-10-02T15:36:39.771Z,100922.63
2022-10-02T15:39:46.392Z,100926.84
2022-10-02T15:42:50.096Z,100938.69
2022-10-02T15:45:59.814Z,100934.91
2022-10-02T15:49:02.248Z,100946.75
2022-10-02T15:52:04.065Z,100955.19
2022-10-02T15:55:02.076Z,100951.38
2022-10-02T15:58:05.376Z,100953.94
2022-10-02T16:01:17.911Z,100964.06
2022-10-02T16:04:15.208Z,100966.41
2022-10-02T16:07:36.102Z,100968.28
2022-10-02T16:10:26.606Z,100976.31
2022-10-02T16:13:34.499Z,100975.47
2022-10-02T16:16:50.592Z,100983.06
2022-10-02T16:19:51.598Z,100985.59
2022-10-02T16:22:57.288Z,100994.84
2022-10-02T16:26:01.710Z,100989.56
2022-10-02T16:28:56.090Z,100999.91
2022-10-02T16:32:03.218Z,101001.78
2022-10-02T16:35:13.978Z,101005.38
2022-10-02T16:38:06.395Z,101005.13
2022-10-02T16:40:58.926Z,101004.50
2022-10-02T16:44:00.718Z,101004.94
2022-10-02T16:46:52.878Z,101010.63
2022-10-02T16:49:51.247Z,101019.88
2022-10-02T16:52:44.804Z,101024.72
2022-10-02T16:55:37.182Z,101020.03
2022-10-02T16:58:28.401Z,101031.41
2022-10-02T17:01:25.698Z,101033.13
2022-10-02T17:04:33.089Z,101037.94
2022-10-02T17:07:30.179Z,101049.75
2022-10-02T17:10:26.452Z,101055.88
2022-10-02T17:13:29.280Z,101058.78
2022-10-02T17:16:23.737Z,101060.47
2022-10-02T17:19:23.620Z,101066.72
2022-10-02T17:22:26.885Z,101073.44
2022-10-02T17:25:22.587Z,101082.00
2022-10-02T17:28:22.959Z,101089.72
2022-10-02T17:31:36.182Z,101086.53
2022-10-02T17:34:25.527Z,101103.06
2022-10-02T17:37:57.442Z,101112.28
2022-10-02T17:40:59.144Z,101111.03
2022-10-02T17:43:58.222Z,101118.34
2022-10-02T17:47:19.288Z,101125.28
2022-10-02T17:50:27.991Z,101130.88
2022-10-02T17:53:50.829Z,101131.41
2022-10-02T17:57:13.472Z,101140.50
2022-10-02T18:00:17.847Z,101154.41
2022-10-02T18:03:27.568Z,101159.88
2022-10-02T18:06:22.283Z,101169.50
2022-10-02T18:09:25.649Z,101171.50
2022-10-02T18:12:28.253Z,101183.22
2022-10-02T18:15:40.297Z,101191.81
2022-10-02T18:18:35.299Z,101190.69
2022-10-02T18:21:34.476Z,101194.84
2022-10-02T18:24:35.943Z,101203.63
2022-10-02T18:27:52.232Z,101202.97
2022-10-02T18:30:50.270Z,101210.78
2022-10-02T18:33:56.761Z,101209.78
2022-10-02T18:37:01.935Z,101217.88
2022-10-02T18:40:06.869Z,101212.78
2022-10-02T18:43:14.856Z,101227.00
2022-10-02T18:46:12.924Z,101232.84
2022-10-02T18:49:16.411Z,101233.19
2022-10-02T18:52:38.844Z,101241.56
2022-10-02T18:55:50.157Z,101243.19
2022-10-02T18:58:53.703Z,101243.72
2022-10-02T19:01:51.524Z,101253.13
2022-10-02T19:04:53.925Z,101262.84
2022-10-02T19:07:45.150Z,101255.59
2022-10-02T19:10:41.059Z,101259.34
2022-10-02T19:13:30.016Z,101260.69
2022-10-02T19:16:26.071Z,101263.22
2022-10-02T19:19:20.291Z,101264.06
2022-10-02T19:22:17.717Z,101267.56
2022-10-02T19:25:08.554Z,101269.25
2022-10-02T19:27:56.477Z,101275.59
2022-10-02T19:30:50.095Z,101280.69
2022-10-02T19:33:46.937Z,101286.47
2022-10-02T19:36:40.073Z,101286.47
2022-10-02T19:39:30.730Z,101288.03
2022-10-02T19:42:24.744Z,101294.72
2022-10-02T19:45:25.460Z,101299.41
2022-10-02T19:48:18.767Z,101299.47
2022-10-02T19:51:16.999Z,101302.75
2022-10-02T19:54:06.375Z,101308.03
2022-10-02T19:56:58.096Z,101306.91
2022-10-02T19:59:49.876Z,101312.38
2022-10-02T20:02:41.840Z,101315.81
2022-10-02T20:05:32.791Z,101319.97
2022-10-02T20:08:28.161Z,101318.84
2022-10-02T20:11:21.578Z,101324.00
2022-10-02T20:14:15.641Z,101325.19
2022-10-02T20:17:10.901Z,101327.59
2022-10-02T20:20:00.841Z,101325.25
2022-10-02T20:22:53.650Z,101324.22
2022-10-02T20:25:48.071Z,101327.66
2022-10-02T20:28:44.129Z,101334.06
2022-10-02T20:31:41.026Z,101343.94
2022-10-02T20:34:33.411Z,101344.84
2022-10-02T20:37:26.382Z,101340.59
2022-10-02T20:40:19.139Z,101348.13
2022-10-02T20:43:16.268Z,101350.03
2022-10-02T20:46:30.793Z,101357.75
2022-10-02T20:49:53.874Z,101356.38
2022-10-02T20:53:19.973Z,101356.88
2022-10-02T20:56:17.796Z,101369.81
2022-10-02T20:59:27.047Z,101369.31
2022-10-02T21:02:33.148Z,101374.63
2022-10-02T21:05:55.311Z,101381.63
2022-10-02T21:09:16.001Z,101383.19
2022-10-02T21:12:27.012Z,101389.97
2022-10-02T21:15:42.409Z,101395.63
2022-10-02T21:19:03.865Z,101395.94
2022-10-02T21:22:27.991Z,101398.16
2022-10-02T21:25:53.846Z,101412.13
2022-10-02T21:29:04.084Z,101406.16
2022-10-02T21:32:20.465Z,101420.81
2022-10-02T21:35:17.583Z,101420.81
2022-10-02T21:38:35.596Z,101432.91
2022-10-02T21:41:52.884Z,101430.88
2022-10-02T21:45:26.025Z,101438.19
2022-10-02T21:48:49.442Z,101444.16
2022-10-02T21:52:04.657Z,101446.34
2022-10-02T21:55:27.869Z,101445.84
2022-10-02T21:58:56.217Z,101449.59
2022-10-02T22:02:09.349Z,101455.06
2022-10-02T22:05:22.941Z,101455.22
2022-10-02T22:08:23.900Z,101454.50
2022-10-02T22:11:18.153Z,101453.66
2022-10-02T22:14:12.795Z,101460.16
2022-10-02T22:17:14.684Z,101465.44
2022-10-02T22:20:21.224Z,101464.75
2022-10-02T22:23:22.100Z,101462.53
2022-10-02T22:26:23.929Z,101472.41
2022-10-02T22:29:16.660Z,101475.47
2022-10-02T22:32:38.188Z,101486.03
2022-10-02T22:35:37.773Z,101473.44
2022-10-02T22:38:33.595Z,101487.41
2022-10-02T22:41:30.125Z,101483.78
2022-10-02T22:44:26.329Z,101488.53
2022-10-02T22:47:30.149Z,101491.38
2022-10-02T22:50:28.840Z,101494.78
2022-10-02T22:53:25.498Z,101491.66
2022-10-02T22:56:27.527Z,101495.41
2022-10-02T22:59:23.205Z,101488.59
2022-10-02T23:02:20.595Z,101493.34
2022-10-02T23:05:15.595Z,101494.69
2022-10-02T23:08:12.682Z,101502.50
2022-10-02T23:11:06.677Z,101500.09
2022-10-02T23:14:01.725Z,101504.88
2022-10-02T23:16:54.976Z,101509.75
2022-10-02T23:19:45.798Z,101504.97
2022-10-02T23:22:37.914Z,101505.13
2022-10-02T23:25:34.121Z,101514.78
2022-10-02T23:28:29.061Z,101518.94
2022-10-02T23:31:22.962Z,101514.66
2022-10-02T23:34:18.378Z,101512.06
2022-10-02T23:37:13.809Z,101515.28
2022-10-02T23:40:16.180Z,101515.91
2022-10-02T23:43:06.284Z,101518.25
2022-10-02T23:46:00.021Z,101518.91
2022-10-02T23:48:49.133Z,101517.28
2022-10-02T23:51:47.952Z,101523.56
2022-10-02T23:54:47.631Z,101533.56
2022-10-02T23:57:57.578Z,101529.28
